• Join FlightAware (Why Join?)
  • Login
  • US Flag 
Gobble Gobble! 
12:37AM EST


 

Airport Tracker/Info


-or-


 

Live Flight TrackerFlight Track Log ✈ N41WM ✈ 29-Jun-2014 ✈ KHWV

Flight Track Log - Related Links

Times and Time Zones

All times are in EDT time to prevent confusion due to time zone crossing. See the N41WM flight status page for this flight to view local times or setup timezone preferences in your user account.

Time Position Orientation Groundspeed Altitude Reporting Facility
EDT Latitude Longitude Course Direction KTS MPH feet Rate Location/Type
06:34PM 39.5919 -74.4939 129° Southeast 67 77 7,500  Level New York Center
06:35PM 39.6069 -74.4811 33° Northeast 67 77 7,500  Level New York Center
06:36PM 39.6242 -74.4633 38° Northeast 74 85 7,600  Climbing New York Center
06:37PM 39.6414 -74.4481 34° Northeast 79 91 7,600  Level New York Center
06:38PM 39.6586 -74.4300 39° Northeast 79 91 7,600 -60 Level New York Center
06:39PM 39.6758 -74.4175 29° Northeast 79 91 7,500  Descending New York Center
06:40PM -19.7551 -160.3267 129° Southeast  Level Estimated
06:40PM 39.6969 -74.4022 29° Northeast 79 91 7,600  Level New York Center
06:41PM 39.7161 -74.3897 27° Northeast 79 91 7,500 -60 Descending New York Center
06:42PM 39.7333 -74.3719 38° Northeast 79 91 7,500  Level New York Center
06:43PM 39.7506 -74.3564 35° Northeast 79 91 7,500  Level New York Center
06:44PM 39.7697 -74.3439 27° Northeast 79 91 7,600  Climbing New York Center
06:45PM 39.7911 -74.3317 24° Northeast 79 91 7,500 -60 Descending New York Center
06:46PM 39.8100 -74.3189 27° Northeast 79 91 7,500  Level New York Center
06:47PM 39.8314 -74.3092 19° North 74 85 7,500  Level New York Center
06:48PM 39.8503 -74.2967 27° Northeast 74 85 7,600  Climbing New York Center
06:49PM 39.8717 -74.2844 24° Northeast 74 85 7,600 -60 Level New York Center
06:56PM 40.0000 -74.2167 31° Northeast 80 92 7,500 -60 Descending New York TRACON
06:57PM 40.0333 -74.2000 21° North 84 97 7,500  Level New York TRACON
06:58PM 40.0627 -74.2105 31° Northeast  Level FlightAware Approximate
06:58PM 40.0500 -74.1833 37° Northeast 79 91 7,500  Level New York TRACON
06:59PM 40.0839 -74.1941 31° Northeast  Level FlightAware Approximate
06:59PM 40.0667 -74.1667 37° Northeast 77 89 7,500  Level New York TRACON
07:00PM 40.1051 -74.1776 31° Northeast  Level FlightAware Approximate
07:00PM 40.0833 -74.1667 360° North 78 90 7,600  Level New York TRACON
07:01PM 40.1263 -74.1611 31° Northeast  Level FlightAware Approximate
07:01PM 40.1000 -74.1500 37° Northeast 81 93 7,600  Level New York TRACON
07:02PM 40.1333 -74.1333 21° North 85 98 7,500 -60 Descending New York TRACON
07:03PM 40.1500 -74.1333 360° North 87 100 7,500  Level New York TRACON
07:04PM 40.1667 -74.1167 37° Northeast 83 96 7,500  Level New York TRACON
07:05PM 40.1833 -74.1000 37° Northeast 79 91 7,500  Level New York TRACON
07:06PM 40.2000 -74.0833 37° Northeast 78 90 7,500  Level New York TRACON
07:07PM 40.2333 -74.0667 21° North 79 91 7,500  Level New York TRACON
07:08PM 40.2500 -74.0500 37° Northeast 81 93 7,500  Level New York TRACON
07:09PM 40.2667 -74.0500 360° North 78 90 7,500  Level New York TRACON
07:10PM 40.2833 -74.0333 37° Northeast 81 93 7,500  Level New York TRACON
07:11PM 40.3000 -74.0167 37° Northeast 81 93 7,500  Level New York TRACON
07:12PM 40.3167 -74.0000 37° Northeast 80 92 7,500  Level New York TRACON
07:13PM 40.3333 -73.9833 37° Northeast 82 94 7,500  Level New York TRACON
07:14PM 40.3500 -73.9667 37° Northeast 78 90 7,500  Level New York TRACON
07:15PM 40.3833 -73.9500 21° North 81 93 7,500  Level New York TRACON
07:16PM 40.4000 -73.9500 360° North 85 98 7,500  Level New York TRACON
07:17PM 40.4167 -73.9333 37° Northeast 85 98 7,500  Level New York TRACON
07:18PM 40.4333 -73.9167 37° Northeast 81 93 7,500  Level New York TRACON
07:19PM 40.4667 -73.9000 21° North 80 92 7,500  Level New York TRACON
07:20PM 40.4833 -73.8833 37° Northeast 82 94 7,500  Level New York TRACON
07:21PM 40.5000 -73.8667 37° Northeast 85 98 7,500  Level New York TRACON
07:22PM 40.5167 -73.8500 37° Northeast 89 102 7,500  Level New York TRACON
07:23PM 40.5333 -73.8333 37° Northeast 87 100 7,500 -60 Level New York TRACON
07:24PM 40.5667 -73.8167 21° North 84 97 7,400 -60 Descending New York TRACON
07:26PM 40.6000 -73.7833 37° Northeast 80 92 7,400  Level New York TRACON
07:30PM 40.6500 -73.6833 73° East 85 98 7,500  Climbing New York TRACON
07:31PM 40.6500 -73.6500 90° East 84 97 7,500  Level New York TRACON
07:32PM 40.6667 -73.6167 57° Northeast 86 99 7,500  Level New York TRACON
07:33PM 40.6667 -73.6000 90° East 86 99 7,500  Level New York TRACON
07:34PM 40.6833 -73.5667 57° Northeast 87 100 7,500  Level New York TRACON
07:35PM 40.6833 -73.5333 90° East 85 98 7,500  Level New York TRACON
07:36PM 40.7000 -73.5000 57° Northeast 87 100 7,600  Climbing New York TRACON
07:37PM 40.7000 -73.4667 90° East 89 102 7,500 -60 Descending New York TRACON
07:39PM 40.7000 -73.4167 90° East 85 98 7,500  Level New York TRACON
07:40PM 40.7167 -73.3833 57° Northeast 82 94 7,500  Level New York TRACON
07:41PM 40.7167 -73.3500 90° East 83 96 7,500  Level New York TRACON
07:42PM 40.7167 -73.3167 90° East 84 97 7,500  Level New York TRACON
07:43PM 40.7167 -73.3000 90° East 82 94 7,500  Level New York TRACON
07:44PM 40.7333 -73.2667 57° Northeast 82 94 7,500  Level New York TRACON
07:45PM 40.7333 -73.2333 90° East 85 98 7,500 -60 Level New York TRACON
07:46PM 40.7333 -73.2000 90° East 82 94 7,400 -300 Descending New York TRACON
07:47PM 40.7500 -73.1667 57° Northeast 94 108 7,000 -480 Descending New York TRACON
07:48PM 40.7667 -73.1333 57° Northeast 94 108 6,500 -600 Descending New York TRACON
07:49PM 40.7667 -73.1167 90° East 87 100 5,900 -660 Descending New York TRACON
07:50PM 40.7833 -73.0833 57° Northeast 101 116 5,200 -600 Descending New York TRACON
07:51PM 40.7833 -73.0500 90° East 90 104 4,700 -540 Descending New York TRACON
07:53PM 40.7934 -72.9996 75° East  Level FlightAware Approximate
08:00PM 40.8167 -72.8667 78° East  Level FlightAware Approximate
08:01PM 40.8219 -72.8669 143° Southeast  Level Estimated
08:02PM 40.8219 -72.8669 178° South  Level Estimated
08:03PM 40.8219 -72.8669 178° South  Level Estimated
08:04PM 40.8167 -72.8667 78° East  Level FlightAware Approximate
08:05PM 40.8219 -72.8669 143° Southeast  Level Estimated
08:06PM 40.8219 -72.8669 178° South  Level Estimated
08:07PM 40.8219 -72.8669 178° South  Level Estimated
08:08PM 40.8167 -72.8667 78° East  Level FlightAware Approximate
08:09PM 40.8219 -72.8669 143° Southeast  Level Estimated
08:10PM 40.8219 -72.8669 178° South  Level Estimated
08:11PM 40.8219 -72.8669 178° South  Level Estimated
08:12PM 40.8167 -72.8667 78° East  Level FlightAware Approximate